createdAt,value
2022-09-05T00:01:55.996Z,12.80
2022-09-05T00:04:23.819Z,12.70
2022-09-05T00:06:35.547Z,12.80
2022-09-05T00:08:51.227Z,12.70
2022-09-05T00:11:41.299Z,12.70
2022-09-05T00:13:31.487Z,12.70
2022-09-05T00:15:43.977Z,12.60
2022-09-05T00:19:16.160Z,12.70
2022-09-05T00:24:32.020Z,12.60
2022-09-05T00:24:33.160Z,12.60
2022-09-05T00:25:58.558Z,12.60
2022-09-05T00:28:26.883Z,12.60
2022-09-05T00:31:08.779Z,12.60
2022-09-05T00:33:29.298Z,12.60
2022-09-05T00:35:54.210Z,12.60
2022-09-05T00:37:58.573Z,12.50
2022-09-05T00:40:20.688Z,12.50
2022-09-05T00:42:24.286Z,12.50
2022-09-05T00:44:33.931Z,12.50
2022-09-05T00:46:42.516Z,12.50
2022-09-05T00:48:54.743Z,12.50
2022-09-05T00:51:16.024Z,12.40
2022-09-05T00:53:27.468Z,12.50
2022-09-05T00:55:42.027Z,12.60
2022-09-05T00:58:04.842Z,12.50
2022-09-05T01:00:17.930Z,12.50
2022-09-05T01:02:36.713Z,12.40
2022-09-05T01:05:02.870Z,12.40
2022-09-05T01:07:21.278Z,12.40
2022-09-05T01:11:53.596Z,12.50
2022-09-05T01:14:09.232Z,12.40
2022-09-05T01:16:24.648Z,12.40
2022-09-05T01:18:43.673Z,12.40
2022-09-05T01:21:06.052Z,12.40
2022-09-05T01:23:40.451Z,12.40
2022-09-05T01:26:11.715Z,12.40
2022-09-05T01:29:15.554Z,12.40
2022-09-05T01:30:55.728Z,12.40
2022-09-05T01:33:12.150Z,12.40
2022-09-05T01:36:04.170Z,12.40
2022-09-05T01:38:14.575Z,12.40
2022-09-05T01:40:25.293Z,12.30
2022-09-05T01:42:40.385Z,12.30
2022-09-05T01:44:56.698Z,12.30
2022-09-05T01:47:10.690Z,12.30
2022-09-05T01:49:25.351Z,12.40
2022-09-05T01:51:42.772Z,12.40
2022-09-05T01:53:51.929Z,12.40
2022-09-05T01:56:26.213Z,12.40
2022-09-05T01:58:44.907Z,12.50
2022-09-05T02:00:57.823Z,12.40
2022-09-05T02:03:29.902Z,12.40
2022-09-05T02:05:52.051Z,12.30
2022-09-05T02:08:21.156Z,12.30
2022-09-05T02:10:48.077Z,12.30
2022-09-05T02:13:02.800Z,12.40
2022-09-05T02:15:11.310Z,12.40
2022-09-05T02:17:49.681Z,12.40
2022-09-05T02:19:54.469Z,12.40
2022-09-05T02:22:04.104Z,12.40
2022-09-05T02:24:15.145Z,12.30
2022-09-05T02:26:24.261Z,12.30
2022-09-05T02:28:37.022Z,12.30
2022-09-05T02:30:59.197Z,12.50
2022-09-05T02:33:22.573Z,12.40
2022-09-05T02:35:33.156Z,12.50
2022-09-05T02:40:15.309Z,12.60
2022-09-05T02:45:02.920Z,12.60
2022-09-05T02:45:07.952Z,12.60
2022-09-05T02:45:26.732Z,12.60
2022-09-05T02:47:38.961Z,12.50
2022-09-05T02:51:15.885Z,12.50
2022-09-05T02:57:25.002Z,12.50
2022-09-05T02:57:37.799Z,12.40
2022-09-05T02:57:41.150Z,12.50
2022-09-05T03:00:03.504Z,12.40
2022-09-05T03:02:25.351Z,12.40
2022-09-05T03:04:37.121Z,12.40
2022-09-05T03:06:50.674Z,12.40
2022-09-05T03:09:17.329Z,12.40
2022-09-05T03:12:15.065Z,12.40
2022-09-05T03:15:22.306Z,12.40
2022-09-05T03:18:20.892Z,12.50
2022-09-05T03:20:54.455Z,12.50
2022-09-05T03:24:07.143Z,12.40
2022-09-05T03:26:34.112Z,12.40
2022-09-05T03:29:06.274Z,12.30
2022-09-05T03:31:27.411Z,12.40
2022-09-05T03:33:56.195Z,12.40
2022-09-05T03:36:28.343Z,12.40
2022-09-05T03:39:15.142Z,12.50
2022-09-05T03:41:40.622Z,12.50
2022-09-05T03:44:10.294Z,12.60
2022-09-05T03:46:29.175Z,12.70
2022-09-05T03:48:50.950Z,12.70
2022-09-05T03:57:06.998Z,12.80
2022-09-05T03:57:17.820Z,12.90
2022-09-05T03:57:25.424Z,12.80
2022-09-05T03:59:31.780Z,13.00
2022-09-05T04:04:37.940Z,13.00
2022-09-05T04:08:15.459Z,12.90
2022-09-05T04:08:27.805Z,12.90
2022-09-05T04:09:10.878Z,12.90
2022-09-05T04:11:18.331Z,12.90
2022-09-05T04:13:28.459Z,13.00
2022-09-05T04:15:42.053Z,13.10
2022-09-05T04:17:49.281Z,13.10
2022-09-05T04:20:00.249Z,13.00
2022-09-05T04:22:16.452Z,12.90
2022-09-05T04:24:30.405Z,12.90
2022-09-05T04:27:06.250Z,12.90
2022-09-05T04:29:20.941Z,12.80
2022-09-05T04:31:37.921Z,12.80
2022-09-05T04:33:55.109Z,12.70
2022-09-05T04:36:12.070Z,12.70
2022-09-05T04:38:38.735Z,12.70
2022-09-05T04:40:46.463Z,12.60
2022-09-05T04:42:50.947Z,12.60
2022-09-05T04:45:01.967Z,12.70
2022-09-05T04:47:10.914Z,12.70
2022-09-05T04:52:00.778Z,12.80
2022-09-05T04:54:18.718Z,13.00
2022-09-05T04:56:27.631Z,13.10
2022-09-05T04:59:14.533Z,13.20
2022-09-05T05:06:03.996Z,13.30
2022-09-05T05:06:09.089Z,13.60
2022-09-05T05:06:31.646Z,13.70
2022-09-05T05:08:38.255Z,13.70
2022-09-05T05:16:00.311Z,13.70
2022-09-05T05:17:56.011Z,13.80
2022-09-05T05:18:06.251Z,13.90
2022-09-05T05:18:39.373Z,14.10
2022-09-05T05:20:58.055Z,14.30
2022-09-05T05:23:08.061Z,14.30
2022-09-05T05:25:13.208Z,14.30
2022-09-05T05:29:30.469Z,14.40
2022-09-05T05:31:36.729Z,14.50
2022-09-05T05:33:42.610Z,14.60
2022-09-05T05:35:49.933Z,14.90
2022-09-05T05:37:57.630Z,15.30
2022-09-05T05:40:08.650Z,15.60
2022-09-05T05:46:39.441Z,15.10
2022-09-05T05:51:34.778Z,16.00
2022-09-05T05:53:55.339Z,16.30
2022-09-05T05:58:50.770Z,17.00
2022-09-05T06:01:40.996Z,17.00
2022-09-05T06:04:07.897Z,17.10
2022-09-05T06:06:25.250Z,17.80
2022-09-05T06:12:38.783Z,18.20
2022-09-05T06:14:58.262Z,18.10
2022-09-05T06:15:09.385Z,18.20
2022-09-05T06:17:40.513Z,18.70
2022-09-05T06:25:25.419Z,18.30
2022-09-05T06:27:43.915Z,18.70
2022-09-05T06:30:10.038Z,19.00
2022-09-05T06:32:28.603Z,19.10
2022-09-05T06:36:57.644Z,19.40
2022-09-05T06:39:11.406Z,19.90
2022-09-05T06:47:56.936Z,22.00
2022-09-05T06:50:24.534Z,22.10
2022-09-05T06:53:10.922Z,22.70
2022-09-05T06:55:47.246Z,23.50
2022-09-05T06:58:22.790Z,23.10
2022-09-05T07:00:29.584Z,22.80
2022-09-05T07:03:00.231Z,22.80
2022-09-05T07:07:40.349Z,23.80
2022-09-05T07:10:03.870Z,24.40
2022-09-05T07:12:21.140Z,24.50
2022-09-05T07:14:29.046Z,25.00
2022-09-05T07:16:47.760Z,24.90
2022-09-05T07:19:03.174Z,26.80
2022-09-05T07:21:17.439Z,27.00
2022-09-05T07:24:06.701Z,27.20
2022-09-05T07:25:59.747Z,28.20
2022-09-05T07:28:26.302Z,28.30
2022-09-05T07:30:34.338Z,27.80
2022-09-05T07:32:42.901Z,28.10
2022-09-05T07:37:13.845Z,28.10
2022-09-05T07:39:28.799Z,28.30
2022-09-05T07:41:39.651Z,28.70
2022-09-05T07:43:46.833Z,29.90
2022-09-05T07:45:57.307Z,30.40
2022-09-05T07:48:04.676Z,31.00
2022-09-05T07:54:18.123Z,30.90
2022-09-05T07:56:48.138Z,31.70
2022-09-05T07:57:08.504Z,31.70
2022-09-05T07:57:40.884Z,32.00
2022-09-05T08:02:01.613Z,33.40
2022-09-05T08:04:05.658Z,34.00
2022-09-05T08:06:14.547Z,34.20
2022-09-05T08:09:18.468Z,34.50
2022-09-05T08:11:25.744Z,33.60
2022-09-05T08:13:56.231Z,33.70
2022-09-05T08:16:22.764Z,34.20
2022-09-05T08:18:35.408Z,33.80
2022-09-05T08:22:52.548Z,33.50
2022-09-05T08:25:02.464Z,33.50
2022-09-05T08:27:16.700Z,33.70
2022-09-05T08:29:31.980Z,35.40
2022-09-05T08:31:42.120Z,35.30
2022-09-05T08:33:48.443Z,35.00
2022-09-05T08:35:59.309Z,34.00
2022-09-05T08:38:05.692Z,34.20
2022-09-05T08:40:19.704Z,34.10
2022-09-05T08:42:33.369Z,33.60
2022-09-05T08:46:43.694Z,34.40
2022-09-05T08:47:33.078Z,34.80
2022-09-05T08:52:09.877Z,33.60
2022-09-05T08:54:27.143Z,33.10
2022-09-05T08:56:38.813Z,32.90
2022-09-05T08:59:27.573Z,32.20
2022-09-05T09:01:39.522Z,31.90
2022-09-05T09:04:11.420Z,32.50
2022-09-05T09:06:38.034Z,33.50
2022-09-05T09:09:05.304Z,33.60
2022-09-05T09:11:21.759Z,34.20
2022-09-05T09:13:36.562Z,34.30
2022-09-05T09:15:46.445Z,34.00
2022-09-05T09:17:52.394Z,33.70
2022-09-05T09:20:11.962Z,32.70
2022-09-05T09:22:25.254Z,32.30
2022-09-05T09:24:38.608Z,32.30
2022-09-05T09:26:51.193Z,32.70
2022-09-05T09:31:12.078Z,32.80
2022-09-05T09:33:27.241Z,33.10
2022-09-05T09:35:45.530Z,32.70
2022-09-05T09:41:00.386Z,33.70
2022-09-05T09:43:17.728Z,33.70
2022-09-05T09:45:41.564Z,33.80
2022-09-05T09:48:36.360Z,34.00
2022-09-05T09:51:00.275Z,34.10
2022-09-05T09:53:27.634Z,33.20
2022-09-05T09:56:10.123Z,33.40
2022-09-05T10:10:14.932Z,34.00
2022-09-05T10:10:48.638Z,34.70
2022-09-05T10:10:52.717Z,35.20
2022-09-05T10:11:53.703Z,35.50
2022-09-05T10:15:07.333Z,34.70
2022-09-05T10:17:53.306Z,33.90
2022-09-05T10:20:12.064Z,33.80
2022-09-05T10:25:18.723Z,34.90
2022-09-05T10:27:48.240Z,35.00
2022-09-05T10:35:11.616Z,33.30
2022-09-05T10:35:13.337Z,32.60
2022-09-05T10:37:14.260Z,30.90
2022-09-05T10:39:23.948Z,29.90
2022-09-05T10:41:42.255Z,28.80
2022-09-05T10:43:50.977Z,28.50
2022-09-05T10:46:05.475Z,28.00
2022-09-05T10:48:19.636Z,27.20
2022-09-05T10:50:30.042Z,27.70
2022-09-05T10:52:37.907Z,27.20
2022-09-05T10:54:57.582Z,27.10
2022-09-05T10:57:33.721Z,26.80
2022-09-05T11:02:16.195Z,26.60
2022-09-05T11:02:34.713Z,26.60
2022-09-05T11:04:50.252Z,26.70
2022-09-05T11:06:59.090Z,26.40
2022-09-05T11:09:12.224Z,26.80
2022-09-05T11:11:34.221Z,26.60
2022-09-05T11:13:46.360Z,26.50
2022-09-05T11:16:12.781Z,26.90
2022-09-05T11:20:45.374Z,27.10
2022-09-05T11:22:50.393Z,27.10
2022-09-05T11:24:57.426Z,27.10
2022-09-05T11:27:23.517Z,26.70
2022-09-05T11:29:36.751Z,26.20
2022-09-05T11:37:30.723Z,25.80
2022-09-05T11:39:54.234Z,25.70
2022-09-05T11:40:06.719Z,26.40
2022-09-05T11:41:01.116Z,27.00
2022-09-05T11:43:35.578Z,26.70
2022-09-05T11:46:11.039Z,26.10
2022-09-05T11:48:28.142Z,26.20
2022-09-05T11:51:03.378Z,26.00
2022-09-05T11:53:47.348Z,26.30
2022-09-05T11:56:09.226Z,26.70
2022-09-05T11:58:44.792Z,27.60
2022-09-05T12:01:42.284Z,28.40
2022-09-05T12:03:59.393Z,28.20
2022-09-05T12:06:39.311Z,28.60
2022-09-05T12:08:55.912Z,28.00
2022-09-05T12:11:09.982Z,27.60
2022-09-05T12:13:45.524Z,27.60
2022-09-05T12:16:08.126Z,27.90
2022-09-05T12:18:21.632Z,27.90
2022-09-05T12:20:37.515Z,28.10
2022-09-05T12:22:53.959Z,28.00
2022-09-05T12:26:06.767Z,28.30
2022-09-05T12:27:59.946Z,28.60
2022-09-05T12:30:23.574Z,28.00
2022-09-05T12:36:08.455Z,26.90
2022-09-05T12:40:03.078Z,26.00
2022-09-05T12:41:33.647Z,26.00
2022-09-05T12:42:49.804Z,25.90
2022-09-05T12:45:11.100Z,25.60
2022-09-05T12:47:22.932Z,25.40
2022-09-05T12:49:37.886Z,25.60
2022-09-05T12:51:55.022Z,25.80
2022-09-05T12:54:02.969Z,26.00
2022-09-05T12:58:40.616Z,26.20
2022-09-05T13:03:04.284Z,25.80
2022-09-05T13:03:08.457Z,25.80
2022-09-05T13:04:15.891Z,25.70
2022-09-05T13:06:25.433Z,25.50
2022-09-05T13:08:44.102Z,25.30
2022-09-05T13:14:47.056Z,25.20
2022-09-05T13:15:01.356Z,24.70
2022-09-05T13:15:51.201Z,24.70
2022-09-05T13:18:02.996Z,24.60
2022-09-05T13:20:18.198Z,24.50
2022-09-05T13:22:24.560Z,24.70
2022-09-05T13:24:34.327Z,25.10
2022-09-05T13:28:51.535Z,26.50
2022-09-05T13:37:54.400Z,26.90
2022-09-05T13:38:10.926Z,26.70
2022-09-05T13:38:11.852Z,26.70
2022-09-05T13:38:50.310Z,26.00
2022-09-05T13:40:58.414Z,25.70
2022-09-05T13:43:13.096Z,25.40
2022-09-05T13:45:19.149Z,25.50
2022-09-05T13:47:51.017Z,25.60
2022-09-05T13:50:07.355Z,25.60
2022-09-05T13:52:28.278Z,25.50
2022-09-05T13:54:39.408Z,25.60
2022-09-05T13:56:50.768Z,25.50
2022-09-05T13:59:02.069Z,25.70
2022-09-05T14:02:24.499Z,26.20
2022-09-05T14:07:46.641Z,26.70
2022-09-05T14:10:05.620Z,26.70
2022-09-05T14:12:15.802Z,26.60
2022-09-05T14:16:56.020Z,26.20
2022-09-05T14:19:17.617Z,25.70
2022-09-05T14:21:21.681Z,25.40
2022-09-05T14:23:31.823Z,25.20
2022-09-05T14:25:39.632Z,25.20
2022-09-05T14:27:46.200Z,25.20
2022-09-05T14:29:52.221Z,24.80
2022-09-05T14:37:35.181Z,25.00
2022-09-05T14:37:39.370Z,25.30
2022-09-05T14:37:48.279Z,25.70
2022-09-05T14:40:38.505Z,25.70
2022-09-05T14:43:07.383Z,25.40
2022-09-05T14:45:46.151Z,25.40
2022-09-05T14:48:24.878Z,25.60
2022-09-05T14:50:50.937Z,25.90
2022-09-05T14:55:28.786Z,26.20
2022-09-05T15:02:55.254Z,25.20
2022-09-05T15:02:58.485Z,25.60
2022-09-05T15:03:00.581Z,25.10
2022-09-05T15:04:56.718Z,25.40
2022-09-05T15:07:07.039Z,25.30
2022-09-05T15:12:15.230Z,25.40
2022-09-05T15:12:23.312Z,25.30
2022-09-05T15:14:03.644Z,25.20
2022-09-05T15:16:10.094Z,25.00
2022-09-05T15:18:20.116Z,24.90
2022-09-05T15:20:33.318Z,24.80
2022-09-05T15:22:38.560Z,24.90
2022-09-05T15:24:41.858Z,24.80
2022-09-05T15:26:54.553Z,25.00
2022-09-05T15:29:13.760Z,24.90
2022-09-05T15:31:24.941Z,25.10
2022-09-05T15:33:31.401Z,25.00
2022-09-05T15:35:38.088Z,24.80
2022-09-05T15:37:43.707Z,24.50
2022-09-05T15:39:47.135Z,24.40
2022-09-05T15:41:53.032Z,24.30
2022-09-05T15:44:03.881Z,24.40
2022-09-05T15:46:13.686Z,24.30
2022-09-05T15:48:26.532Z,24.10
2022-09-05T15:50:45.428Z,24.00
2022-09-05T15:52:52.736Z,23.90
2022-09-05T15:55:04.007Z,23.90
2022-09-05T15:57:18.094Z,23.80
2022-09-05T15:59:26.194Z,23.80
2022-09-05T16:01:53.673Z,23.90
2022-09-05T16:06:06.942Z,23.70
2022-09-05T16:10:37.856Z,23.40
2022-09-05T16:10:42.033Z,23.50
2022-09-05T16:12:06.281Z,23.30
2022-09-05T16:14:11.419Z,23.20
2022-09-05T16:20:11.620Z,23.20
2022-09-05T16:23:26.985Z,23.10
2022-09-05T16:23:33.822Z,23.10
2022-09-05T16:23:42.016Z,23.10
2022-09-05T16:25:49.893Z,22.90
2022-09-05T16:27:58.156Z,22.80
2022-09-05T16:30:04.127Z,22.60
2022-09-05T16:32:27.561Z,22.40
2022-09-05T16:34:36.686Z,22.50
2022-09-05T16:36:54.770Z,22.60
2022-09-05T16:39:17.088Z,22.50
2022-09-05T16:41:24.937Z,22.30
2022-09-05T16:43:32.117Z,22.10
2022-09-05T16:45:45.813Z,22.10
2022-09-05T16:47:57.045Z,22.10
2022-09-05T16:50:05.846Z,21.90
2022-09-05T16:52:22.781Z,21.80
2022-09-05T16:54:31.986Z,21.70
2022-09-05T16:56:41.021Z,21.70
2022-09-05T16:58:49.347Z,21.70
2022-09-05T17:01:21.624Z,21.60
2022-09-05T17:03:35.783Z,21.50
2022-09-05T17:05:46.499Z,21.40
2022-09-05T17:08:05.114Z,21.20
2022-09-05T17:10:10.689Z,21.20
2022-09-05T17:12:21.901Z,21.10
2022-09-05T17:14:28.919Z,21.10
2022-09-05T17:16:38.398Z,21.00
2022-09-05T17:18:43.739Z,20.90
2022-09-05T17:20:50.821Z,20.80
2022-09-05T17:29:20.232Z,20.80
2022-09-05T17:29:27.606Z,20.60
2022-09-05T17:29:49.406Z,20.70
2022-09-05T17:32:48.442Z,20.70
2022-09-05T17:35:17.484Z,20.60
2022-09-05T17:38:04.322Z,20.50
2022-09-05T17:40:51.665Z,20.40
2022-09-05T17:42:59.872Z,20.40
2022-09-05T17:45:14.170Z,20.40
2022-09-05T17:47:35.535Z,20.50
2022-09-05T17:49:45.248Z,20.30
2022-09-05T17:52:18.402Z,20.30
2022-09-05T17:54:28.829Z,20.30
2022-09-05T17:56:36.341Z,20.20
2022-09-05T17:58:49.092Z,20.10
2022-09-05T18:01:19.240Z,20.10
2022-09-05T18:04:08.599Z,20.00
2022-09-05T18:06:43.609Z,20.00
2022-09-05T18:08:56.773Z,19.90
2022-09-05T18:11:02.727Z,19.90
2022-09-05T18:13:32.625Z,20.00
2022-09-05T18:16:11.007Z,19.90
2022-09-05T18:19:28.866Z,19.90
2022-09-05T18:21:12.202Z,19.90
2022-09-05T18:23:54.405Z,19.90
2022-09-05T18:26:04.374Z,19.90
2022-09-05T18:28:23.558Z,19.90
2022-09-05T18:32:45.580Z,20.00
2022-09-05T18:35:12.140Z,19.90
2022-09-05T18:37:52.072Z,19.90
2022-09-05T18:40:08.244Z,19.90
2022-09-05T18:42:33.502Z,19.90
2022-09-05T18:44:44.824Z,19.90
2022-09-05T18:46:50.389Z,19.90
2022-09-05T18:49:53.216Z,19.90
2022-09-05T18:51:27.057Z,19.90
2022-09-05T18:53:39.626Z,19.80
2022-09-05T18:56:12.554Z,19.70
2022-09-05T18:58:27.854Z,19.50
2022-09-05T19:00:44.561Z,19.40
2022-09-05T19:02:58.804Z,19.30
2022-09-05T19:05:15.714Z,19.30
2022-09-05T19:07:23.518Z,19.20
2022-09-05T19:11:52.687Z,19.20
2022-09-05T19:14:25.471Z,19.20
2022-09-05T19:16:43.169Z,19.20
2022-09-05T19:19:07.066Z,19.20
2022-09-05T19:21:16.718Z,19.20
2022-09-05T19:23:24.255Z,19.20
2022-09-05T19:25:31.476Z,19.20
2022-09-05T19:31:58.118Z,19.00
2022-09-05T19:37:07.577Z,19.10
2022-09-05T19:37:15.101Z,19.00
2022-09-05T19:37:25.475Z,19.00
2022-09-05T19:37:33.021Z,19.00
2022-09-05T19:43:24.171Z,19.10
2022-09-05T19:47:29.846Z,19.00
2022-09-05T19:47:34.074Z,19.00
2022-09-05T19:47:40.061Z,18.90
2022-09-05T19:49:30.918Z,18.90
2022-09-05T19:51:35.124Z,18.70
2022-09-05T19:53:47.474Z,18.70
2022-09-05T19:55:53.940Z,18.60
2022-09-05T19:58:19.811Z,18.50
2022-09-05T20:00:27.000Z,18.60
2022-09-05T20:02:33.242Z,18.50
2022-09-05T20:04:40.223Z,18.50
2022-09-05T20:06:44.343Z,18.50
2022-09-05T20:08:47.820Z,18.40
2022-09-05T20:11:01.868Z,18.40
2022-09-05T20:13:22.259Z,18.40
2022-09-05T20:15:36.171Z,18.20
2022-09-05T20:17:43.289Z,18.20
2022-09-05T20:19:46.991Z,18.30
2022-09-05T20:21:53.790Z,18.20
2022-09-05T20:24:00.398Z,18.20
2022-09-05T20:26:03.894Z,18.20
2022-09-05T20:28:10.160Z,18.10
2022-09-05T20:30:19.302Z,18.10
2022-09-05T20:32:39.514Z,18.10
2022-09-05T20:35:40.758Z,17.90
2022-09-05T20:43:12.569Z,17.90
2022-09-05T20:43:27.820Z,17.80
2022-09-05T20:43:30.868Z,17.70
2022-09-05T20:44:39.849Z,17.70
2022-09-05T20:48:42.091Z,17.60
2022-09-05T20:54:13.191Z,17.50
2022-09-05T20:54:14.630Z,17.60
2022-09-05T20:54:31.682Z,17.50
2022-09-05T20:56:34.350Z,17.40
2022-09-05T20:58:40.495Z,17.30
2022-09-05T21:01:19.947Z,17.40
2022-09-05T21:03:11.654Z,17.30
2022-09-05T21:05:27.923Z,17.40
2022-09-05T21:07:35.643Z,17.30
2022-09-05T21:09:55.118Z,17.30
2022-09-05T21:12:06.071Z,17.30
2022-09-05T21:14:19.307Z,17.20
2022-09-05T21:16:29.199Z,17.20
2022-09-05T21:18:34.276Z,17.20
2022-09-05T21:20:40.627Z,17.20
2022-09-05T21:22:45.155Z,17.20
2022-09-05T21:24:48.670Z,17.20
2022-09-05T21:26:52.340Z,17.30
2022-09-05T21:29:05.346Z,17.30
2022-09-05T21:31:15.162Z,17.30
2022-09-05T21:33:28.638Z,17.40
2022-09-05T21:35:50.556Z,17.40
2022-09-05T21:37:55.086Z,17.50
2022-09-05T21:40:00.907Z,17.50
2022-09-05T21:42:42.797Z,17.50
2022-09-05T21:47:42.055Z,17.50
2022-09-05T21:47:44.823Z,17.50
2022-09-05T21:49:19.356Z,17.50
2022-09-05T21:51:26.283Z,17.40
2022-09-05T21:58:32.129Z,17.50
2022-09-05T21:59:21.454Z,17.50
2022-09-05T21:59:33.070Z,17.40
2022-09-05T22:00:45.746Z,17.40
2022-09-05T22:02:49.869Z,17.40
2022-09-05T22:05:03.185Z,17.30
2022-09-05T22:07:08.457Z,17.20
2022-09-05T22:09:14.412Z,17.10
2022-09-05T22:11:17.863Z,17.00
2022-09-05T22:13:21.620Z,17.00
2022-09-05T22:15:28.152Z,16.90
2022-09-05T22:17:32.787Z,16.90
2022-09-05T22:19:38.091Z,16.80
2022-09-05T22:21:41.851Z,16.70
2022-09-05T22:23:50.588Z,16.70
2022-09-05T22:25:54.353Z,16.60
2022-09-05T22:28:06.474Z,16.60
2022-09-05T22:30:11.086Z,16.50
2022-09-05T22:32:15.719Z,16.50
2022-09-05T22:34:19.310Z,16.50
2022-09-05T22:36:23.008Z,16.40
2022-09-05T22:38:26.878Z,16.50
2022-09-05T22:40:33.182Z,16.50
2022-09-05T22:42:36.954Z,16.40
2022-09-05T22:44:41.997Z,16.40
2022-09-05T22:46:45.633Z,16.30
2022-09-05T22:48:49.389Z,16.30
2022-09-05T22:52:56.794Z,16.40
2022-09-05T22:55:00.524Z,16.40
2022-09-05T22:57:06.163Z,16.40
2022-09-05T22:59:14.842Z,16.50
2022-09-05T23:01:18.286Z,16.50
2022-09-05T23:03:22.052Z,16.50
2022-09-05T23:05:25.449Z,16.60
2022-09-05T23:07:29.123Z,16.50
2022-09-05T23:09:32.520Z,16.60
2022-09-05T23:11:36.027Z,16.60
2022-09-05T23:13:41.145Z,16.60
2022-09-05T23:15:44.602Z,16.60
2022-09-05T23:17:54.803Z,16.60
2022-09-05T23:19:58.109Z,16.60
2022-09-05T23:22:02.300Z,16.70
2022-09-05T23:24:06.013Z,16.70
2022-09-05T23:26:11.287Z,16.70
2022-09-05T23:28:14.813Z,16.80
2022-09-05T23:30:19.860Z,16.80
2022-09-05T23:32:23.276Z,16.80
2022-09-05T23:34:26.949Z,16.80
2022-09-05T23:36:31.763Z,16.80
2022-09-05T23:38:36.050Z,16.80
2022-09-05T23:40:40.119Z,16.80
2022-09-05T23:42:43.494Z,16.80
2022-09-05T23:44:46.799Z,16.80
2022-09-05T23:46:54.494Z,16.80
2022-09-05T23:48:57.766Z,16.80
2022-09-05T23:51:06.997Z,16.80
2022-09-05T23:53:10.493Z,16.80
2022-09-05T23:55:15.435Z,16.80
2022-09-05T23:57:24.595Z,16.80
2022-09-05T23:59:29.017Z,16.80
